Time;durP1;ratioP1;P1;durP2;ratioP2;P2;SDS_P1;SDS_P2;PMS_P1;PMS_P2;Temp;Humidity;BMP_temperature;BMP_pressure;BME280_temperature;BME280_humidity;BME280_pressure;Samples;Min_cycle;Max_cycle;Signal;HPM_P1;HPM_P2
2021/05/28 00:01:34;;;;;;;;;;;14.00;97.80;;;;;;5075889;28;19920;-80
2021/05/28 00:03:59;;;;;;;;;;;14.00;97.80;;;;;;5058194;28;19908;-81
2021/05/28 00:06:25;;;;;;;;;;;13.90;99.90;;;;;;5056780;28;19930;-80
2021/05/28 00:08:50;;;;;;;;;;;13.60;98.90;;;;;;5047951;28;19912;-80
2021/05/28 00:11:16;;;;;;;;;;;13.60;99.00;;;;;;5071452;28;19935;-81
2021/05/28 00:13:42;;;;;;;;;;;13.60;98.70;;;;;;5055005;28;19955;-80
2021/05/28 00:16:07;;;;;;;;;;;13.70;99.20;;;;;;5062369;28;19913;-80
2021/05/28 00:18:33;;;;;;;;;;;13.50;99.30;;;;;;5061841;28;19919;-80
2021/05/28 00:20:59;;;;;;;;;;;13.40;99.90;;;;;;5072413;28;19912;-80
2021/05/28 00:23:24;;;;;;;;;;;13.30;99.90;;;;;;5056772;28;19919;-81
2021/05/28 00:25:50;;;;;;;;;;;13.20;99.90;;;;;;5076009;28;19916;-80
2021/05/28 00:28:16;;;;;;;;;;;13.20;99.90;;;;;;5066820;28;20049;-80
2021/05/28 00:30:41;;;;;;;;;;;13.30;99.90;;;;;;5059763;28;19909;-80
2021/05/28 00:33:07;;;;;;;;;;;13.10;99.90;;;;;;5048353;28;20037;-80
2021/05/28 00:35:32;;;;;;;;;;;13.10;99.90;;;;;;5050070;28;19926;-81
2021/05/28 00:37:58;;;;;;;;;;;13.30;99.90;;;;;;5064815;28;19920;-80
2021/05/28 00:40:25;;;;;;;;;;;13.10;99.90;;;;;;5066003;28;19943;-80
2021/05/28 00:42:51;;;;;;;;;;;13.20;99.90;;;;;;5058976;28;20296;-80
2021/05/28 00:45:16;;;;;;;;;;;13.10;99.90;;;;;;5064158;28;19913;-80
2021/05/28 00:47:42;;;;;;;;;;;13.00;99.90;;;;;;5059321;28;19915;-80
2021/05/28 00:50:08;;;;;;;;;;;13.20;99.90;;;;;;5065864;28;19911;-80
2021/05/28 00:52:34;;;;;;;;;;;13.10;99.90;;;;;;5067371;28;19912;-80
2021/05/28 00:54:59;;;;;;;;;;;13.00;99.90;;;;;;5090041;28;19915;-80
2021/05/28 00:57:28;;;;;;;;;;;13.00;99.90;;;;;;5055564;28;19923;-80
2021/05/28 00:59:56;;;;;;;;;;;13.00;99.90;;;;;;5064523;28;19912;-80
2021/05/28 01:02:22;;;;;;;;;;;12.90;99.90;;;;;;5071209;28;19913;-80
2021/05/28 01:04:48;;;;;;;;;;;12.90;99.90;;;;;;5067188;28;20268;-80
2021/05/28 01:07:13;;;;;;;;;;;12.80;99.90;;;;;;5056545;28;19908;-80
2021/05/28 01:09:39;;;;;;;;;;;12.70;99.90;;;;;;5073786;28;20406;-80
2021/05/28 01:12:05;;;;;;;;;;;12.70;99.90;;;;;;5061195;28;19915;-79
2021/05/28 01:14:30;;;;;;;;;;;12.80;99.90;;;;;;5065900;28;19919;-80
2021/05/28 01:16:56;;;;;;;;;;;12.80;99.90;;;;;;5075883;28;19951;-80
2021/05/28 01:19:24;;;;;;;;;;;12.50;99.90;;;;;;5068230;28;19920;-80
2021/05/28 01:21:50;;;;;;;;;;;12.60;99.90;;;;;;5053555;28;19912;-80
2021/05/28 01:24:16;;;;;;;;;;;12.60;99.90;;;;;;5064408;28;19915;-80
2021/05/28 01:26:41;;;;;;;;;;;12.60;99.90;;;;;;5074677;28;19962;-80
2021/05/28 01:29:07;;;;;;;;;;;12.40;99.90;;;;;;5068501;28;19944;-80
2021/05/28 01:31:33;;;;;;;;;;;12.40;99.90;;;;;;5067005;28;19912;-80
2021/05/28 01:33:59;;;;;;;;;;;12.40;99.90;;;;;;5077637;28;19989;-80
2021/05/28 01:36:24;;;;;;;;;;;12.30;99.90;;;;;;5069951;28;19908;-80
2021/05/28 01:38:50;;;;;;;;;;;12.20;99.90;;;;;;5074939;28;20391;-80
2021/05/28 01:41:16;;;;;;;;;;;12.20;99.90;;;;;;5076452;28;19923;-80
2021/05/28 01:43:41;;;;;;;;;;;12.30;99.90;;;;;;5077996;28;19913;-80
2021/05/28 01:46:07;;;;;;;;;;;12.10;99.90;;;;;;5068265;28;19982;-80
2021/05/28 01:48:32;;;;;;;;;;;12.20;99.90;;;;;;5069725;28;19915;-80
2021/05/28 01:50:58;;;;;;;;;;;12.20;99.90;;;;;;5059667;28;21148;-80
2021/05/28 01:53:25;;;;;;;;;;;12.40;99.90;;;;;;5049227;28;19913;-79
2021/05/28 01:55:51;;;;;;;;;;;12.20;99.90;;;;;;5059499;28;19916;-80
2021/05/28 01:58:18;;;;;;;;;;;12.10;99.90;;;;;;5051170;28;19909;-81
2021/05/28 02:00:46;;;;;;;;;;;12.10;99.90;;;;;;5082623;28;19911;-80
2021/05/28 02:03:12;;;;;;;;;;;11.90;99.90;;;;;;5069571;28;19919;-80
2021/05/28 02:05:37;;;;;;;;;;;11.80;99.90;;;;;;5050387;28;19917;-80
2021/05/28 02:08:04;;;;;;;;;;;11.70;99.90;;;;;;5051573;28;19912;-80
2021/05/28 02:10:30;;;;;;;;;;;11.70;99.90;;;;;;5066385;28;19916;-80
2021/05/28 02:12:56;;;;;;;;;;;11.70;99.90;;;;;;5065736;28;19995;-80
2021/05/28 02:15:22;;;;;;;;;;;11.80;99.90;;;;;;5060974;28;19912;-80
2021/05/28 02:17:52;;;;;;;;;;;11.80;99.90;;;;;;5065698;28;20681;-80
2021/05/28 02:20:17;;;;;;;;;;;11.60;99.90;;;;;;5066772;28;20429;-80
2021/05/28 02:22:43;;;;;;;;;;;11.80;99.90;;;;;;5058744;28;19916;-80
2021/05/28 02:25:09;;;;;;;;;;;11.70;99.90;;;;;;5053529;28;19908;-80
2021/05/28 02:27:35;;;;;;;;;;;11.70;99.90;;;;;;5061125;28;20284;-80
2021/05/28 02:30:01;;;;;;;;;;;11.80;99.90;;;;;;5065474;28;19905;-80
2021/05/28 02:32:27;;;;;;;;;;;11.80;99.90;;;;;;5060697;28;19912;-80
2021/05/28 02:34:53;;;;;;;;;;;11.70;99.90;;;;;;5059063;28;19918;-80
2021/05/28 02:37:19;;;;;;;;;;;11.70;99.90;;;;;;5050230;28;19999;-80
2021/05/28 02:39:44;;;;;;;;;;;11.70;99.90;;;;;;5070217;28;20031;-80
2021/05/28 02:42:11;;;;;;;;;;;11.80;99.90;;;;;;5060853;28;19912;-80
2021/05/28 02:44:37;;;;;;;;;;;11.90;99.90;;;;;;5060531;28;19919;-80
2021/05/28 02:47:03;;;;;;;;;;;11.80;99.90;;;;;;5073784;28;20414;-80
2021/05/28 02:49:28;;;;;;;;;;;11.70;99.90;;;;;;5087019;28;19916;-80
2021/05/28 02:51:54;;;;;;;;;;;11.80;99.90;;;;;;5078237;28;19919;-81
2021/05/28 02:54:19;;;;;;;;;;;11.80;99.90;;;;;;5062080;28;19908;-80
2021/05/28 02:56:45;;;;;;;;;;;11.60;99.90;;;;;;5087578;28;19908;-80
2021/05/28 02:59:11;;;;;;;;;;;11.80;99.90;;;;;;5087659;28;19919;-80
2021/05/28 03:01:36;;;;;;;;;;;11.80;99.90;;;;;;5069897;28;20311;-80
2021/05/28 03:04:02;;;;;;;;;;;11.70;99.90;;;;;;5061809;28;20042;-80
2021/05/28 03:06:30;;;;;;;;;;;11.70;99.90;;;;;;5075555;28;19915;-81
2021/05/28 03:08:56;;;;;;;;;;;11.50;99.90;;;;;;5058125;28;20647;-80
2021/05/28 03:11:21;;;;;;;;;;;11.50;99.90;;;;;;5060597;28;19912;-81
2021/05/28 03:13:47;;;;;;;;;;;11.30;99.90;;;;;;5067001;28;19920;-80
2021/05/28 03:16:12;;;;;;;;;;;11.50;99.90;;;;;;5074101;28;19919;-80
2021/05/28 03:18:53;;;;;;;;;;;11.50;99.90;;;;;;5049275;28;19947;-80
2021/05/28 03:21:23;;;;;;;;;;;11.30;99.90;;;;;;5076668;28;20689;-80
2021/05/28 03:23:49;;;;;;;;;;;11.30;99.90;;;;;;5088998;28;20683;-81
2021/05/28 03:26:15;;;;;;;;;;;11.60;99.90;;;;;;5059104;28;19909;-80
2021/05/28 03:28:40;;;;;;;;;;;11.40;99.90;;;;;;5056420;28;19913;-80
2021/05/28 03:31:06;;;;;;;;;;;11.40;99.90;;;;;;5062072;28;19915;-80
2021/05/28 03:33:32;;;;;;;;;;;11.30;99.90;;;;;;5069986;28;20019;-81
2021/05/28 03:35:58;;;;;;;;;;;11.40;99.90;;;;;;5055977;28;19913;-81
2021/05/28 03:38:23;;;;;;;;;;;11.30;99.90;;;;;;5057767;28;20356;-80
2021/05/28 03:40:50;;;;;;;;;;;11.10;99.90;;;;;;5085327;28;20022;-81
2021/05/28 03:43:16;;;;;;;;;;;11.10;99.90;;;;;;5073361;28;19923;-80
2021/05/28 03:45:41;;;;;;;;;;;11.20;99.90;;;;;;5051504;28;19909;-80
2021/05/28 03:48:07;;;;;;;;;;;11.00;99.90;;;;;;5072154;28;19943;-80
2021/05/28 03:50:33;;;;;;;;;;;11.10;99.90;;;;;;5070411;28;19912;-80
2021/05/28 03:53:01;;;;;;;;;;;11.20;99.90;;;;;;5067384;28;19918;-80
2021/05/28 03:55:27;;;;;;;;;;;11.40;99.90;;;;;;5066013;28;19908;-80
2021/05/28 03:57:53;;;;;;;;;;;11.30;99.90;;;;;;5061458;28;20360;-80
2021/05/28 04:00:19;;;;;;;;;;;11.30;99.90;;;;;;5054219;28;19912;-80
2021/05/28 04:02:46;;;;;;;;;;;11.30;99.90;;;;;;5050931;28;20445;-80
2021/05/28 04:05:14;;;;;;;;;;;11.40;99.90;;;;;;5065523;28;20427;-80
2021/05/28 04:07:43;;;;;;;;;;;11.50;99.90;;;;;;5064364;28;19990;-80
2021/05/28 04:10:08;;;;;;;;;;;11.50;99.90;;;;;;5051194;28;19920;-80
2021/05/28 04:12:34;;;;;;;;;;;11.40;99.90;;;;;;5049510;28;19912;-80
2021/05/28 04:15:00;;;;;;;;;;;11.30;99.90;;;;;;5075731;28;19934;-80
2021/05/28 04:17:26;;;;;;;;;;;11.30;99.90;;;;;;5075521;28;19934;-80
2021/05/28 04:19:52;;;;;;;;;;;11.40;99.90;;;;;;5076143;28;20376;-80
2021/05/28 04:22:17;;;;;;;;;;;11.30;99.90;;;;;;5067901;28;19916;-80
2021/05/28 04:24:43;;;;;;;;;;;11.20;99.90;;;;;;5072869;28;19913;-80
2021/05/28 04:27:08;;;;;;;;;;;11.30;99.90;;;;;;5079589;28;19912;-80
2021/05/28 04:29:34;;;;;;;;;;;11.30;99.90;;;;;;5052049;28;19937;-80
2021/05/28 04:32:00;;;;;;;;;;;11.60;99.90;;;;;;5075487;28;20292;-80
2021/05/28 04:34:25;;;;;;;;;;;11.90;99.90;;;;;;5062963;28;19912;-80
2021/05/28 04:36:52;;;;;;;;;;;12.20;99.90;;;;;;5070870;28;19908;-80
2021/05/28 04:39:17;;;;;;;;;;;12.50;99.90;;;;;;5074730;28;19908;-81
2021/05/28 04:41:43;;;;;;;;;;;12.80;99.90;;;;;;5077110;28;19951;-81
2021/05/28 04:44:09;;;;;;;;;;;13.00;99.90;;;;;;5074361;28;19935;-81
2021/05/28 04:46:34;;;;;;;;;;;13.40;99.90;;;;;;5077221;28;19931;-81
2021/05/28 04:49:00;;;;;;;;;;;13.50;99.90;;;;;;5059748;28;19962;-81
2021/05/28 04:51:25;;;;;;;;;;;13.60;99.90;;;;;;5074214;28;20006;-80
2021/05/28 04:53:51;;;;;;;;;;;13.80;99.90;;;;;;5078003;28;19912;-81
2021/05/28 04:56:18;;;;;;;;;;;14.10;99.90;;;;;;5060619;28;20401;-81
2021/05/28 04:58:43;;;;;;;;;;;14.10;99.90;;;;;;5051591;28;19916;-80
2021/05/28 05:01:09;;;;;;;;;;;14.20;99.90;;;;;;5072513;28;19956;-80
2021/05/28 05:03:35;;;;;;;;;;;14.20;99.90;;;;;;5073663;28;19956;-81
2021/05/28 05:06:00;;;;;;;;;;;14.40;99.90;;;;;;5081852;28;20375;-80
2021/05/28 05:08:26;;;;;;;;;;;14.30;99.90;;;;;;5054888;28;19913;-81
2021/05/28 05:10:52;;;;;;;;;;;14.60;99.90;;;;;;5084710;28;20436;-80
2021/05/28 05:13:17;;;;;;;;;;;14.90;99.90;;;;;;5072078;28;19978;-81
2021/05/28 05:15:43;;;;;;;;;;;15.30;99.90;;;;;;5071160;28;19912;-82
2021/05/28 05:18:08;;;;;;;;;;;15.30;99.90;;;;;;5076088;28;19920;-82
2021/05/28 05:20:35;;;;;;;;;;;15.50;99.90;;;;;;5067967;28;19916;-81
2021/05/28 05:23:01;;;;;;;;;;;15.40;99.90;;;;;;5062426;28;20379;-80
2021/05/28 05:25:26;;;;;;;;;;;15.40;99.90;;;;;;5072010;28;20026;-80
2021/05/28 05:27:52;;;;;;;;;;;15.30;99.90;;;;;;5076898;28;20019;-81
2021/05/28 05:30:18;;;;;;;;;;;15.90;99.90;;;;;;5079287;28;19912;-83
2021/05/28 05:32:44;;;;;;;;;;;16.40;99.90;;;;;;5074189;28;19912;-82
2021/05/28 05:35:10;;;;;;;;;;;16.20;99.90;;;;;;5058146;28;19912;-81
2021/05/28 05:37:35;;;;;;;;;;;17.20;99.90;;;;;;5066210;28;19949;-81
2021/05/28 05:40:01;;;;;;;;;;;17.10;99.90;;;;;;5079251;28;19904;-80
2021/05/28 05:42:26;;;;;;;;;;;17.10;99.90;;;;;;5053804;28;19924;-81
2021/05/28 05:44:52;;;;;;;;;;;17.60;99.90;;;;;;5071603;28;19949;-81
2021/05/28 05:47:18;;;;;;;;;;;17.70;99.90;;;;;;5089815;28;20279;-81
2021/05/28 05:49:43;;;;;;;;;;;17.60;99.90;;;;;;5090505;28;20021;-81
2021/05/28 05:52:09;;;;;;;;;;;17.60;99.90;;;;;;5088727;28;20004;-81
2021/05/28 05:54:35;;;;;;;;;;;17.50;99.90;;;;;;5089799;28;19911;-81
2021/05/28 05:57:01;;;;;;;;;;;17.70;99.90;;;;;;5090296;28;19915;-81
2021/05/28 05:59:29;;;;;;;;;;;17.50;99.90;;;;;;5089971;28;19912;-81
2021/05/28 06:01:54;;;;;;;;;;;18.20;99.80;;;;;;5074111;28;19981;-81
2021/05/28 06:04:20;;;;;;;;;;;17.90;99.90;;;;;;5084156;28;20326;-83
2021/05/28 06:06:46;;;;;;;;;;;18.50;99.10;;;;;;5089258;28;19907;-82
2021/05/28 06:09:11;;;;;;;;;;;18.60;99.60;;;;;;5090276;28;19911;-83
2021/05/28 06:11:39;;;;;;;;;;;19.30;98.90;;;;;;5090199;28;20279;-83
2021/05/28 06:14:08;;;;;;;;;;;18.80;98.60;;;;;;5089301;28;19912;-82
2021/05/28 06:16:33;;;;;;;;;;;18.90;98.40;;;;;;5090038;28;19911;-82
2021/05/28 06:18:59;;;;;;;;;;;18.90;98.00;;;;;;5089932;28;20551;-82
2021/05/28 06:21:24;;;;;;;;;;;19.50;97.30;;;;;;5090029;28;19911;-82
2021/05/28 06:23:50;;;;;;;;;;;19.40;97.40;;;;;;5089749;28;19973;-82
2021/05/28 06:26:16;;;;;;;;;;;19.90;97.30;;;;;;5077718;28;20754;-82
2021/05/28 06:28:41;;;;;;;;;;;19.80;96.70;;;;;;5067956;28;19904;-82
2021/05/28 06:31:07;;;;;;;;;;;18.90;97.20;;;;;;5069728;28;19904;-82
2021/05/28 06:33:33;;;;;;;;;;;19.10;97.80;;;;;;5069701;28;19919;-82
2021/05/28 06:35:58;;;;;;;;;;;19.40;97.10;;;;;;5055981;28;19916;-82
2021/05/28 06:38:24;;;;;;;;;;;21.00;95.60;;;;;;5063561;28;20329;-82
2021/05/28 06:40:49;;;;;;;;;;;20.50;94.60;;;;;;5082104;28;19960;-83
2021/05/28 06:43:15;;;;;;;;;;;21.10;94.30;;;;;;5077084;28;20387;-82
2021/05/28 06:45:41;;;;;;;;;;;20.50;95.90;;;;;;5075804;28;20287;-83
2021/05/28 06:48:08;;;;;;;;;;;20.70;94.00;;;;;;5079709;28;19991;-83
2021/05/28 06:50:34;;;;;;;;;;;22.00;93.70;;;;;;5067241;28;19950;-83
2021/05/28 06:53:00;;;;;;;;;;;21.70;93.30;;;;;;5073013;28;20380;-83
2021/05/28 06:55:26;;;;;;;;;;;21.60;93.20;;;;;;5073191;28;19916;-82
2021/05/28 06:57:52;;;;;;;;;;;21.80;92.40;;;;;;5069002;28;19905;-84
2021/05/28 07:00:18;;;;;;;;;;;22.80;92.10;;;;;;5064991;28;19919;-83
2021/05/28 07:02:43;;;;;;;;;;;22.20;92.30;;;;;;5054230;28;19943;-84
2021/05/28 07:05:09;;;;;;;;;;;22.40;92.30;;;;;;5057059;28;19916;-85
2021/05/28 07:07:35;;;;;;;;;;;23.00;91.40;;;;;;5070286;28;19907;-83
2021/05/28 07:10:01;;;;;;;;;;;22.50;91.30;;;;;;5071772;28;19948;-83
2021/05/28 07:12:26;;;;;;;;;;;23.20;90.70;;;;;;5068928;28;20669;-83
2021/05/28 07:14:52;;;;;;;;;;;23.60;89.80;;;;;;5074460;28;20334;-83
2021/05/28 07:17:18;;;;;;;;;;;24.60;86.90;;;;;;5056955;28;19977;-83
2021/05/28 07:19:43;;;;;;;;;;;24.40;85.10;;;;;;5051499;28;19920;-84
2021/05/28 07:22:09;;;;;;;;;;;24.20;87.50;;;;;;5072679;28;20015;-84
2021/05/28 07:24:35;;;;;;;;;;;25.60;81.00;;;;;;5056522;28;19905;-83
2021/05/28 07:27:00;;;;;;;;;;;25.20;81.60;;;;;;5087551;28;19908;-83
2021/05/28 07:29:26;;;;;;;;;;;25.90;75.90;;;;;;5051456;28;19912;-83
2021/05/28 07:31:52;;;;;;;;;;;26.30;76.60;;;;;;5063342;28;19916;-84
2021/05/28 07:34:18;;;;;;;;;;;27.10;74.20;;;;;;5065711;28;19909;-84
2021/05/28 07:36:44;;;;;;;;;;;27.30;74.70;;;;;;5056989;28;19918;-84
2021/05/28 07:39:10;;;;;;;;;;;27.30;67.50;;;;;;5062248;28;19911;-84
2021/05/28 07:41:36;;;;;;;;;;;27.70;64.40;;;;;;5071981;28;20048;-84
2021/05/28 07:44:03;;;;;;;;;;;28.10;68.60;;;;;;5077804;28;20390;-84
2021/05/28 07:46:29;;;;;;;;;;;26.20;65.30;;;;;;5079073;28;20006;-84
2021/05/28 07:48:55;;;;;;;;;;;28.40;64.00;;;;;;5072936;28;20055;-85
2021/05/28 07:51:20;;;;;;;;;;;28.80;65.20;;;;;;5060806;28;19951;-84
2021/05/28 07:53:46;;;;;;;;;;;29.90;62.50;;;;;;5054506;28;19940;-84
2021/05/28 07:56:12;;;;;;;;;;;31.50;56.30;;;;;;5089588;28;19969;-84
2021/05/28 07:58:38;;;;;;;;;;;29.80;56.90;;;;;;5090860;28;19912;-84
2021/05/28 08:01:04;;;;;;;;;;;31.00;59.90;;;;;;5071925;28;19933;-83
2021/05/28 08:03:30;;;;;;;;;;;30.80;56.70;;;;;;5064046;28;19916;-83
2021/05/28 08:05:56;;;;;;;;;;;32.30;51.30;;;;;;5084502;28;19908;-84
2021/05/28 08:08:26;;;;;;;;;;;29.60;59.60;;;;;;5092278;28;20431;-83
2021/05/28 08:10:52;;;;;;;;;;;30.70;53.60;;;;;;5093109;28;20382;-83
2021/05/28 08:13:17;;;;;;;;;;;30.70;52.80;;;;;;5092616;28;19946;-83
2021/05/28 08:15:43;;;;;;;;;;;30.70;56.00;;;;;;5091433;28;20354;-84
2021/05/28 08:18:09;;;;;;;;;;;31.70;53.20;;;;;;5092418;28;20001;-84
2021/05/28 08:20:34;;;;;;;;;;;33.40;44.00;;;;;;5092622;28;19998;-84
2021/05/28 08:23:00;;;;;;;;;;;31.20;46.60;;;;;;5092839;28;19908;-84
2021/05/28 08:25:26;;;;;;;;;;;32.40;47.90;;;;;;5092326;28;19908;-84
2021/05/28 08:27:52;;;;;;;;;;;31.20;51.50;;;;;;5075231;28;19904;-84
2021/05/28 08:30:18;;;;;;;;;;;31.00;50.00;;;;;;5085957;28;19908;-84
2021/05/28 08:32:43;;;;;;;;;;;32.00;48.00;;;;;;5074828;28;20050;-84
2021/05/28 08:35:09;;;;;;;;;;;33.20;42.30;;;;;;5065320;28;19909;-84
2021/05/28 08:37:35;;;;;;;;;;;33.70;42.60;;;;;;5059043;28;20339;-84
2021/05/28 08:40:01;;;;;;;;;;;33.60;34.80;;;;;;5071945;28;19915;-84
2021/05/28 08:42:28;;;;;;;;;;;33.90;35.40;;;;;;5071531;28;19974;-84
2021/05/28 08:44:53;;;;;;;;;;;35.90;34.90;;;;;;5071996;28;19916;-84
2021/05/28 08:47:19;;;;;;;;;;;34.60;36.60;;;;;;5071597;28;19904;-84
2021/05/28 08:49:48;;;;;;;;;;;34.50;33.20;;;;;;5071630;28;19911;-84
2021/05/28 08:52:14;;;;;;;;;;;34.10;34.90;;;;;;5071503;28;19915;-84
2021/05/28 08:54:39;;;;;;;;;;;34.70;34.20;;;;;;5071304;28;19908;-84
2021/05/28 08:57:05;;;;;;;;;;;36.90;31.20;;;;;;5070232;28;20368;-83
2021/05/28 08:59:31;;;;;;;;;;;35.20;33.20;;;;;;5071230;28;19908;-84
2021/05/28 09:01:57;;;;;;;;;;;34.90;32.00;;;;;;5071530;28;20283;-83
2021/05/28 09:04:22;;;;;;;;;;;34.10;32.20;;;;;;5070990;28;19939;-83
2021/05/28 09:06:49;;;;;;;;;;;36.00;25.90;;;;;;5071089;28;19908;-83
2021/05/28 09:09:16;;;;;;;;;;;36.10;26.20;;;;;;5069859;28;19915;-83
2021/05/28 09:12:00;;;;;;;;;;;37.80;22.60;;;;;;5069798;28;19908;-84
2021/05/28 09:14:32;;;;;;;;;;;38.30;22.40;;;;;;5071489;28;19915;-83
2021/05/28 09:16:58;;;;;;;;;;;36.80;20.40;;;;;;5071660;28;19912;-83
2021/05/28 09:19:24;;;;;;;;;;;37.80;24.00;;;;;;5071463;28;20301;-84
2021/05/28 09:21:56;;;;;;;;;;;38.30;17.20;;;;;;5070000;28;19908;-84
2021/05/28 09:24:27;;;;;;;;;;;38.80;16.20;;;;;;5071413;28;19912;-83
2021/05/28 09:26:52;;;;;;;;;;;38.60;20.30;;;;;;5071251;28;19948;-84
2021/05/28 09:29:19;;;;;;;;;;;38.30;15.80;;;;;;5076896;28;20425;-83
2021/05/28 09:31:45;;;;;;;;;;;39.70;11.80;;;;;;5091336;28;19911;-83
2021/05/28 09:34:11;;;;;;;;;;;40.40;12.70;;;;;;5091468;28;19939;-83
2021/05/28 09:36:37;;;;;;;;;;;40.30;12.50;;;;;;5072366;28;20401;-83
2021/05/28 09:39:07;;;;;;;;;;;39.60;10.70;;;;;;5071041;28;20329;-83
2021/05/28 09:41:43;;;;;;;;;;;40.40;9.70;;;;;;5071331;28;19999;-83
2021/05/28 09:44:09;;;;;;;;;;;39.10;8.20;;;;;;5071206;28;20043;-84
2021/05/28 09:46:34;;;;;;;;;;;39.60;6.40;;;;;;5071266;28;19990;-84
2021/05/28 09:49:07;;;;;;;;;;;40.00;11.60;;;;;;5073161;28;20364;-84
2021/05/28 09:51:33;;;;;;;;;;;39.00;11.00;;;;;;5091493;28;19908;-84
2021/05/28 09:54:11;;;;;;;;;;;40.70;5.10;;;;;;5090918;28;19908;-84
2021/05/28 09:56:36;;;;;;;;;;;40.40;5.70;;;;;;5091472;28;19923;-84
2021/05/28 09:59:05;;;;;;;;;;;40.10;3.80;;;;;;5091136;28;20321;-84
2021/05/28 10:01:32;;;;;;;;;;;39.60;3.10;;;;;;5091136;28;20661;-84
2021/05/28 10:03:59;;;;;;;;;;;36.10;16.40;;;;;;5091033;28;19916;-84
2021/05/28 10:06:26;;;;;;;;;;;37.30;14.30;;;;;;5091095;28;19911;-84
2021/05/28 10:08:52;;;;;;;;;;;36.30;10.10;;;;;;5090560;28;19908;-84
2021/05/28 10:11:18;;;;;;;;;;;39.10;9.10;;;;;;5091023;28;20268;-84
2021/05/28 10:13:43;;;;;;;;;;;37.90;9.80;;;;;;5090988;28;19915;-84
2021/05/28 10:16:13;;;;;;;;;;;36.10;12.90;;;;;;5089171;28;20375;-84
2021/05/28 10:18:38;;;;;;;;;;;36.20;13.00;;;;;;5090049;28;19919;-83
2021/05/28 10:21:04;;;;;;;;;;;38.10;11.00;;;;;;5090217;28;19904;-84
2021/05/28 10:23:30;;;;;;;;;;;36.90;13.00;;;;;;5090458;28;19907;-83
2021/05/28 10:25:57;;;;;;;;;;;37.70;10.00;;;;;;5088856;28;20478;-83
2021/05/28 10:28:27;;;;;;;;;;;36.50;14.70;;;;;;5083576;28;19908;-83
2021/05/28 10:30:53;;;;;;;;;;;37.50;9.00;;;;;;5068719;28;19908;-83
2021/05/28 10:33:20;;;;;;;;;;;36.50;10.80;;;;;;5069861;28;20265;-83
2021/05/28 10:35:49;;;;;;;;;;;38.00;9.20;;;;;;5069943;28;19918;-83
2021/05/28 10:38:30;;;;;;;;;;;39.50;2.80;;;;;;5076903;28;19909;-83
2021/05/28 10:41:17;;;;;;;;;;;39.60;5.90;;;;;;5060507;28;19955;-83
2021/05/28 10:43:49;;;;;;;;;;;37.60;5.90;;;;;;5056336;28;19950;-84
2021/05/28 10:46:16;;;;;;;;;;;36.80;6.50;;;;;;5057290;28;19905;-83
2021/05/28 10:48:45;;;;;;;;;;;37.60;6.40;;;;;;5056613;28;19952;-83
2021/05/28 10:51:12;;;;;;;;;;;38.90;9.40;;;;;;5056545;28;19955;-83
2021/05/28 10:53:38;;;;;;;;;;;38.30;7.30;;;;;;5055295;28;19909;-83
2021/05/28 10:56:08;;;;;;;;;;;37.10;10.30;;;;;;5061352;28;19991;-83
2021/05/28 10:59:06;;;;;;;;;;;37.30;8.70;;;;;;5056968;28;19950;-84
2021/05/28 11:01:34;;;;;;;;;;;37.40;4.70;;;;;;5056699;28;19919;-82
2021/05/28 11:04:03;;;;;;;;;;;39.60;5.10;;;;;;5052899;28;19939;-82
2021/05/28 11:06:33;;;;;;;;;;;38.60;5.70;;;;;;5055290;28;20436;-84
2021/05/28 11:09:04;;;;;;;;;;;35.80;11.30;;;;;;5057481;28;19913;-83
2021/05/28 11:11:35;;;;;;;;;;;36.90;10.40;;;;;;5062313;28;20003;-83
2021/05/28 11:14:03;;;;;;;;;;;35.30;13.70;;;;;;5052852;28;19954;-83
2021/05/28 11:16:49;;;;;;;;;;;35.10;13.50;;;;;;5059714;28;19916;-83
2021/05/28 11:19:25;;;;;;;;;;;36.00;10.40;;;;;;5061768;28;19971;-83
2021/05/28 11:21:54;;;;;;;;;;;35.00;14.20;;;;;;5057887;28;20083;-83
2021/05/28 11:24:20;;;;;;;;;;;36.10;10.30;;;;;;5058514;28;19967;-83
2021/05/28 11:26:46;;;;;;;;;;;36.20;13.10;;;;;;5074578;28;19915;-83
2021/05/28 11:29:19;;;;;;;;;;;31.80;14.60;;;;;;5058374;28;20585;-82
2021/05/28 11:31:45;;;;;;;;;;;28.60;21.40;;;;;;5053678;28;19912;-83
2021/05/28 11:34:10;;;;;;;;;;;27.20;23.30;;;;;;5057605;28;19904;-82
2021/05/28 11:36:45;;;;;;;;;;;26.60;26.10;;;;;;5056978;28;19978;-83
2021/05/28 11:39:18;;;;;;;;;;;26.70;25.40;;;;;;5056476;28;19913;-82
2021/05/28 11:41:43;;;;;;;;;;;26.60;26.90;;;;;;5057535;28;20024;-82
2021/05/28 11:44:10;;;;;;;;;;;26.70;26.90;;;;;;5057221;28;19995;-82
2021/05/28 11:46:37;;;;;;;;;;;26.50;26.80;;;;;;5051314;28;19908;-83
2021/05/28 11:49:04;;;;;;;;;;;26.60;26.40;;;;;;5054283;28;20925;-83
2021/05/28 11:51:30;;;;;;;;;;;26.50;26.00;;;;;;5062309;28;20395;-82
2021/05/28 11:53:58;;;;;;;;;;;26.30;25.50;;;;;;5057175;28;19912;-81
2021/05/28 11:56:28;;;;;;;;;;;26.20;27.00;;;;;;5069240;28;19982;-82
2021/05/28 11:58:54;;;;;;;;;;;26.20;27.10;;;;;;5074263;28;19955;-82
2021/05/28 12:01:20;;;;;;;;;;;26.50;28.20;;;;;;5063713;28;21417;-82
2021/05/28 12:03:46;;;;;;;;;;;26.20;27.20;;;;;;5065638;28;19916;-82
2021/05/28 12:06:12;;;;;;;;;;;26.20;28.00;;;;;;5070767;28;19939;-82
2021/05/28 12:08:41;;;;;;;;;;;26.40;27.70;;;;;;5074712;28;19919;-82
2021/05/28 12:11:11;;;;;;;;;;;26.20;28.20;;;;;;5059616;28;19909;-82
2021/05/28 12:13:47;;;;;;;;;;;25.80;28.70;;;;;;5069698;28;20314;-83
2021/05/28 12:16:16;;;;;;;;;;;25.70;29.00;;;;;;5073358;28;20389;-82
2021/05/28 12:18:48;;;;;;;;;;;26.00;28.80;;;;;;5071978;28;20284;-82
2021/05/28 12:21:23;;;;;;;;;;;26.20;28.30;;;;;;5068729;28;20322;-82
2021/05/28 12:23:50;;;;;;;;;;;26.00;28.20;;;;;;5069365;28;19915;-83
2021/05/28 12:26:19;;;;;;;;;;;26.00;29.20;;;;;;5070981;28;19905;-83
2021/05/28 12:28:51;;;;;;;;;;;25.80;27.50;;;;;;5070682;28;21238;-83
2021/05/28 12:31:21;;;;;;;;;;;25.70;27.30;;;;;;5062388;28;19912;-83
2021/05/28 12:33:52;;;;;;;;;;;25.30;27.80;;;;;;5063032;28;19947;-83
2021/05/28 12:36:30;;;;;;;;;;;25.70;27.90;;;;;;5060264;28;19917;-83
2021/05/28 12:38:56;;;;;;;;;;;25.60;28.40;;;;;;5078762;28;19959;-83
2021/05/28 12:41:23;;;;;;;;;;;25.50;28.60;;;;;;5080214;28;19921;-83
2021/05/28 12:43:51;;;;;;;;;;;25.50;28.90;;;;;;5067921;28;19916;-83
2021/05/28 12:46:21;;;;;;;;;;;25.60;28.10;;;;;;5075107;28;19912;-83
2021/05/28 12:49:07;;;;;;;;;;;25.70;28.00;;;;;;5065589;28;20510;-83
2021/05/28 12:51:32;;;;;;;;;;;25.70;28.50;;;;;;5067285;28;19909;-83
2021/05/28 12:53:59;;;;;;;;;;;25.50;27.90;;;;;;5079601;28;19908;-82
2021/05/28 12:56:26;;;;;;;;;;;25.50;28.20;;;;;;5083074;28;19904;-82
2021/05/28 12:58:53;;;;;;;;;;;25.50;29.10;;;;;;5084373;28;19922;-82
2021/05/28 13:01:21;;;;;;;;;;;25.70;29.40;;;;;;5078986;28;20497;-82
2021/05/28 13:03:49;;;;;;;;;;;25.60;28.70;;;;;;5082533;28;20006;-82
2021/05/28 13:06:29;;;;;;;;;;;25.30;28.20;;;;;;5079810;28;19908;-82
2021/05/28 13:09:14;;;;;;;;;;;25.10;28.70;;;;;;5076725;28;19908;-82
2021/05/28 13:11:54;;;;;;;;;;;25.50;29.00;;;;;;5070155;28;19963;-82
2021/05/28 13:14:20;;;;;;;;;;;25.30;29.10;;;;;;5085468;28;19915;-82
2021/05/28 13:16:46;;;;;;;;;;;24.90;29.20;;;;;;5081965;28;19908;-82
2021/05/28 13:19:12;;;;;;;;;;;25.30;30.90;;;;;;5080976;28;19922;-82
2021/05/28 13:21:38;;;;;;;;;;;25.50;30.70;;;;;;5079652;28;19911;-82
2021/05/28 13:24:04;;;;;;;;;;;25.50;30.00;;;;;;5077615;28;19912;-82
2021/05/28 13:26:31;;;;;;;;;;;25.50;31.60;;;;;;5075047;28;19930;-82
2021/05/28 13:28:57;;;;;;;;;;;25.10;31.20;;;;;;5084829;28;19912;-82
2021/05/28 13:31:23;;;;;;;;;;;24.90;33.00;;;;;;5079928;28;19912;-82
2021/05/28 13:33:49;;;;;;;;;;;25.50;33.70;;;;;;5089055;28;19908;-82
2021/05/28 13:36:18;;;;;;;;;;;24.90;31.80;;;;;;5078155;28;19909;-82
2021/05/28 13:38:46;;;;;;;;;;;25.10;32.70;;;;;;5078566;28;19909;-82
2021/05/28 13:41:25;;;;;;;;;;;25.20;33.10;;;;;;5078551;28;19912;-82
2021/05/28 13:43:51;;;;;;;;;;;25.30;31.40;;;;;;5083600;28;19912;-82
2021/05/28 13:46:17;;;;;;;;;;;25.40;32.50;;;;;;5075424;28;19985;-82
2021/05/28 13:48:43;;;;;;;;;;;25.30;31.70;;;;;;5079433;28;19934;-82
2021/05/28 13:51:09;;;;;;;;;;;24.70;31.80;;;;;;5073449;28;19912;-82
2021/05/28 13:53:35;;;;;;;;;;;25.00;32.90;;;;;;5075270;28;20383;-83
2021/05/28 13:56:01;;;;;;;;;;;25.10;32.90;;;;;;5059848;28;19912;-83
2021/05/28 13:58:29;;;;;;;;;;;24.90;33.70;;;;;;5079363;28;19994;-82
2021/05/28 14:01:04;;;;;;;;;;;24.80;33.90;;;;;;5087399;28;20400;-82
2021/05/28 14:03:30;;;;;;;;;;;24.70;32.90;;;;;;5077819;28;19959;-82
2021/05/28 14:05:56;;;;;;;;;;;24.70;33.30;;;;;;5080094;28;19916;-82
2021/05/28 14:08:22;;;;;;;;;;;24.90;35.40;;;;;;5079928;28;19908;-82
2021/05/28 14:10:50;;;;;;;;;;;25.10;34.10;;;;;;5078936;28;19951;-83
2021/05/28 14:13:16;;;;;;;;;;;24.90;34.40;;;;;;5080758;28;19919;-84
2021/05/28 14:15:42;;;;;;;;;;;24.80;34.20;;;;;;5070864;28;19915;-84
2021/05/28 14:18:08;;;;;;;;;;;24.70;33.70;;;;;;5064282;28;20364;-85